sensor_id;sensor_type;location;lat;lon;timestamp;pressure;altitude;pressure_sealevel;temperature;humidity
78857;BME280;68207;50.078;19.936;2023-04-24T00:01:20;98201.64;;;13.60;53.22
78857;BME280;68207;50.078;19.936;2023-04-24T00:03:45;98202.71;;;13.55;53.44
78857;BME280;68207;50.078;19.936;2023-04-24T00:06:11;98198.19;;;13.49;53.40
78857;BME280;68207;50.078;19.936;2023-04-24T00:08:36;98193.79;;;13.43;53.64
78857;BME280;68207;50.078;19.936;2023-04-24T00:11:01;98187.33;;;13.35;53.90
78857;BME280;68207;50.078;19.936;2023-04-24T00:13:28;98184.23;;;13.28;53.96
78857;BME280;68207;50.078;19.936;2023-04-24T00:15:54;98190.14;;;13.24;53.97
78857;BME280;68207;50.078;19.936;2023-04-24T00:18:19;98190.44;;;13.18;54.22
78857;BME280;68207;50.078;19.936;2023-04-24T00:20:45;98189.05;;;13.12;54.42
78857;BME280;68207;50.078;19.936;2023-04-24T00:23:10;98185.84;;;13.07;54.47
78857;BME280;68207;50.078;19.936;2023-04-24T00:25:35;98187.20;;;13.04;54.46
78857;BME280;68207;50.078;19.936;2023-04-24T00:28:01;98182.90;;;12.99;54.70
78857;BME280;68207;50.078;19.936;2023-04-24T00:30:27;98181.06;;;12.94;55.01
78857;BME280;68207;50.078;19.936;2023-04-24T00:32:52;98178.20;;;12.89;54.93
78857;BME280;68207;50.078;19.936;2023-04-24T00:35:17;98176.78;;;12.85;55.07
78857;BME280;68207;50.078;19.936;2023-04-24T00:37:45;98174.94;;;12.81;55.23
78857;BME280;68207;50.078;19.936;2023-04-24T00:40:10;98177.19;;;12.74;55.32
78857;BME280;68207;50.078;19.936;2023-04-24T00:42:36;98180.26;;;12.70;55.31
78857;BME280;68207;50.078;19.936;2023-04-24T00:45:02;98178.59;;;12.64;55.66
78857;BME280;68207;50.078;19.936;2023-04-24T00:47:28;98174.20;;;12.57;55.58
78857;BME280;68207;50.078;19.936;2023-04-24T00:49:54;98171.45;;;12.51;55.86
78857;BME280;68207;50.078;19.936;2023-04-24T00:52:19;98169.34;;;12.46;56.02
78857;BME280;68207;50.078;19.936;2023-04-24T00:54:46;98169.08;;;12.41;55.85
78857;BME280;68207;50.078;19.936;2023-04-24T00:57:13;98170.66;;;12.36;55.95
78857;BME280;68207;50.078;19.936;2023-04-24T00:59:40;98164.25;;;12.31;56.16
78857;BME280;68207;50.078;19.936;2023-04-24T01:02:07;98162.31;;;12.25;56.29
78857;BME280;68207;50.078;19.936;2023-04-24T01:04:32;98164.75;;;12.20;56.10
78857;BME280;68207;50.078;19.936;2023-04-24T01:06:58;98161.34;;;12.13;56.30
78857;BME280;68207;50.078;19.936;2023-04-24T01:09:23;98159.38;;;12.08;56.53
78857;BME280;68207;50.078;19.936;2023-04-24T01:11:49;98153.09;;;12.03;56.68
78857;BME280;68207;50.078;19.936;2023-04-24T01:14:15;98150.94;;;11.98;56.81
78857;BME280;68207;50.078;19.936;2023-04-24T01:16:40;98152.77;;;11.94;56.90
78857;BME280;68207;50.078;19.936;2023-04-24T01:19:07;98150.96;;;11.90;56.87
78857;BME280;68207;50.078;19.936;2023-04-24T01:21:36;98149.70;;;11.84;57.13
78857;BME280;68207;50.078;19.936;2023-04-24T01:24:03;98149.34;;;11.79;57.18
78857;BME280;68207;50.078;19.936;2023-04-24T01:26:28;98148.88;;;11.74;57.44
78857;BME280;68207;50.078;19.936;2023-04-24T01:28:53;98145.55;;;11.70;57.67
78857;BME280;68207;50.078;19.936;2023-04-24T01:31:19;98144.64;;;11.66;58.08
78857;BME280;68207;50.078;19.936;2023-04-24T01:33:45;98140.66;;;11.60;58.34
78857;BME280;68207;50.078;19.936;2023-04-24T01:36:11;98141.45;;;11.55;58.68
78857;BME280;68207;50.078;19.936;2023-04-24T01:38:36;98137.16;;;11.51;58.59
78857;BME280;68207;50.078;19.936;2023-04-24T01:41:02;98140.57;;;11.48;58.80
78857;BME280;68207;50.078;19.936;2023-04-24T01:43:27;98132.77;;;11.46;58.87
78857;BME280;68207;50.078;19.936;2023-04-24T01:45:53;98137.49;;;11.43;59.08
78857;BME280;68207;50.078;19.936;2023-04-24T01:48:18;98131.02;;;11.39;59.17
78857;BME280;68207;50.078;19.936;2023-04-24T01:50:43;98125.08;;;11.34;59.22
78857;BME280;68207;50.078;19.936;2023-04-24T01:53:09;98123.18;;;11.31;59.30
78857;BME280;68207;50.078;19.936;2023-04-24T01:55:34;98120.52;;;11.27;59.61
78857;BME280;68207;50.078;19.936;2023-04-24T01:58:00;98121.64;;;11.23;59.63
78857;BME280;68207;50.078;19.936;2023-04-24T02:00:27;98117.02;;;11.19;59.94
78857;BME280;68207;50.078;19.936;2023-04-24T02:02:52;98114.13;;;11.15;59.80
78857;BME280;68207;50.078;19.936;2023-04-24T02:05:18;98113.23;;;11.10;60.13
78857;BME280;68207;50.078;19.936;2023-04-24T02:07:43;98111.05;;;11.06;60.10
78857;BME280;68207;50.078;19.936;2023-04-24T02:10:09;98106.36;;;11.04;60.15
78857;BME280;68207;50.078;19.936;2023-04-24T02:12:34;98106.34;;;11.01;60.14
78857;BME280;68207;50.078;19.936;2023-04-24T02:15:00;98102.09;;;10.97;60.46
78857;BME280;68207;50.078;19.936;2023-04-24T02:17:25;98099.93;;;10.92;60.55
78857;BME280;68207;50.078;19.936;2023-04-24T02:19:51;98096.97;;;10.86;60.83
78857;BME280;68207;50.078;19.936;2023-04-24T02:22:16;98096.08;;;10.81;60.82
78857;BME280;68207;50.078;19.936;2023-04-24T02:24:41;98090.11;;;10.80;60.66
78857;BME280;68207;50.078;19.936;2023-04-24T02:27:07;98090.83;;;10.82;60.81
78857;BME280;68207;50.078;19.936;2023-04-24T02:29:32;98089.64;;;10.83;60.66
78857;BME280;68207;50.078;19.936;2023-04-24T02:31:58;98088.46;;;10.82;60.74
78857;BME280;68207;50.078;19.936;2023-04-24T02:34:23;98083.92;;;10.80;60.70
78857;BME280;68207;50.078;19.936;2023-04-24T02:36:49;98076.13;;;10.78;60.94
78857;BME280;68207;50.078;19.936;2023-04-24T02:39:14;98072.42;;;10.75;61.01
78857;BME280;68207;50.078;19.936;2023-04-24T02:41:41;98069.88;;;10.73;60.91
78857;BME280;68207;50.078;19.936;2023-04-24T02:44:07;98068.31;;;10.70;61.32
78857;BME280;68207;50.078;19.936;2023-04-24T02:46:32;98065.93;;;10.68;61.26
78857;BME280;68207;50.078;19.936;2023-04-24T02:48:57;98067.02;;;10.65;61.29
78857;BME280;68207;50.078;19.936;2023-04-24T02:51:23;98066.48;;;10.62;61.04
78857;BME280;68207;50.078;19.936;2023-04-24T02:53:48;98065.92;;;10.60;61.09
78857;BME280;68207;50.078;19.936;2023-04-24T02:56:13;98060.00;;;10.56;61.40
78857;BME280;68207;50.078;19.936;2023-04-24T02:58:39;98060.86;;;10.51;61.38
78857;BME280;68207;50.078;19.936;2023-04-24T03:01:04;98062.27;;;10.44;61.61
78857;BME280;68207;50.078;19.936;2023-04-24T03:03:30;98063.12;;;10.37;61.48
78857;BME280;68207;50.078;19.936;2023-04-24T03:05:55;98065.58;;;10.33;61.62
78857;BME280;68207;50.078;19.936;2023-04-24T03:08:22;98067.89;;;10.31;61.83
78857;BME280;68207;50.078;19.936;2023-04-24T03:10:47;98067.84;;;10.25;61.86
78857;BME280;68207;50.078;19.936;2023-04-24T03:13:12;98068.21;;;10.21;61.99
78857;BME280;68207;50.078;19.936;2023-04-24T03:15:38;98062.55;;;10.17;62.23
78857;BME280;68207;50.078;19.936;2023-04-24T03:18:03;98068.28;;;10.13;62.17
78857;BME280;68207;50.078;19.936;2023-04-24T03:20:29;98070.52;;;10.13;62.37
78857;BME280;68207;50.078;19.936;2023-04-24T03:22:54;98069.70;;;10.16;62.07
78857;BME280;68207;50.078;19.936;2023-04-24T03:25:19;98071.60;;;10.17;62.17
78857;BME280;68207;50.078;19.936;2023-04-24T03:27:45;98068.68;;;10.15;62.23
78857;BME280;68207;50.078;19.936;2023-04-24T03:30:11;98067.41;;;10.11;62.60
78857;BME280;68207;50.078;19.936;2023-04-24T03:32:36;98067.42;;;10.08;62.54
78857;BME280;68207;50.078;19.936;2023-04-24T03:35:01;98065.26;;;10.06;62.70
78857;BME280;68207;50.078;19.936;2023-04-24T03:37:27;98068.30;;;10.05;62.58
78857;BME280;68207;50.078;19.936;2023-04-24T03:39:52;98068.11;;;10.03;62.42
78857;BME280;68207;50.078;19.936;2023-04-24T03:42:18;98066.34;;;10.01;62.53
78857;BME280;68207;50.078;19.936;2023-04-24T03:44:43;98065.52;;;9.99;62.42
78857;BME280;68207;50.078;19.936;2023-04-24T03:47:08;98064.76;;;9.97;62.58
78857;BME280;68207;50.078;19.936;2023-04-24T03:49:34;98064.16;;;9.95;62.43
78857;BME280;68207;50.078;19.936;2023-04-24T03:51:59;98067.42;;;9.95;62.58
78857;BME280;68207;50.078;19.936;2023-04-24T03:54:24;98069.73;;;9.93;62.73
78857;BME280;68207;50.078;19.936;2023-04-24T03:56:50;98069.67;;;9.90;62.71
78857;BME280;68207;50.078;19.936;2023-04-24T03:59:15;98068.88;;;9.88;62.73
78857;BME280;68207;50.078;19.936;2023-04-24T04:01:40;98068.63;;;9.88;62.62
78857;BME280;68207;50.078;19.936;2023-04-24T04:04:06;98067.64;;;9.87;62.44
78857;BME280;68207;50.078;19.936;2023-04-24T04:06:32;98067.61;;;9.87;62.50
78857;BME280;68207;50.078;19.936;2023-04-24T04:08:58;98072.00;;;9.87;62.45
78857;BME280;68207;50.078;19.936;2023-04-24T04:11:23;98065.98;;;9.88;62.72
78857;BME280;68207;50.078;19.936;2023-04-24T04:13:49;98071.19;;;9.87;62.61
78857;BME280;68207;50.078;19.936;2023-04-24T04:16:14;98064.72;;;9.89;62.35
78857;BME280;68207;50.078;19.936;2023-04-24T04:18:42;98069.36;;;9.97;62.08
78857;BME280;68207;50.078;19.936;2023-04-24T04:21:07;98073.05;;;10.04;62.05
78857;BME280;68207;50.078;19.936;2023-04-24T04:23:32;98069.86;;;10.08;61.67
78857;BME280;68207;50.078;19.936;2023-04-24T04:25:58;98064.40;;;10.19;61.65
78857;BME280;68207;50.078;19.936;2023-04-24T04:28:23;98064.91;;;10.26;61.67
78857;BME280;68207;50.078;19.936;2023-04-24T04:30:50;98062.18;;;10.32;61.59
78857;BME280;68207;50.078;19.936;2023-04-24T04:33:19;98060.92;;;10.38;61.66
78857;BME280;68207;50.078;19.936;2023-04-24T04:35:44;98058.27;;;10.42;61.61
78857;BME280;68207;50.078;19.936;2023-04-24T04:38:13;98061.50;;;10.46;61.19
78857;BME280;68207;50.078;19.936;2023-04-24T04:40:40;98057.91;;;10.50;61.28
78857;BME280;68207;50.078;19.936;2023-04-24T04:43:05;98057.06;;;10.57;61.14
78857;BME280;68207;50.078;19.936;2023-04-24T04:45:31;98060.67;;;10.66;60.63
78857;BME280;68207;50.078;19.936;2023-04-24T04:47:58;98056.77;;;10.74;60.13
78857;BME280;68207;50.078;19.936;2023-04-24T04:50:26;98054.36;;;10.83;59.85
78857;BME280;68207;50.078;19.936;2023-04-24T04:52:52;98056.70;;;10.93;59.73
78857;BME280;68207;50.078;19.936;2023-04-24T04:55:17;98054.95;;;11.02;59.69
78857;BME280;68207;50.078;19.936;2023-04-24T04:57:43;98058.42;;;11.11;59.57
78857;BME280;68207;50.078;19.936;2023-04-24T05:00:09;98057.42;;;11.20;59.02
78857;BME280;68207;50.078;19.936;2023-04-24T05:02:35;98061.19;;;11.29;58.76
78857;BME280;68207;50.078;19.936;2023-04-24T05:05:00;98063.52;;;11.38;58.21
78857;BME280;68207;50.078;19.936;2023-04-24T05:07:26;98066.23;;;11.47;57.92
78857;BME280;68207;50.078;19.936;2023-04-24T05:09:51;98064.29;;;11.58;57.53
78857;BME280;68207;50.078;19.936;2023-04-24T05:12:17;98062.19;;;11.68;57.32
78857;BME280;68207;50.078;19.936;2023-04-24T05:14:42;98059.64;;;11.80;57.40
78857;BME280;68207;50.078;19.936;2023-04-24T05:17:08;98057.04;;;11.91;57.45
78857;BME280;68207;50.078;19.936;2023-04-24T05:19:33;98058.48;;;12.03;57.03
78857;BME280;68207;50.078;19.936;2023-04-24T05:22:01;98055.79;;;12.15;56.58
78857;BME280;68207;50.078;19.936;2023-04-24T05:24:28;98051.86;;;12.27;56.39
78857;BME280;68207;50.078;19.936;2023-04-24T05:26:53;98051.33;;;12.39;56.19
78857;BME280;68207;50.078;19.936;2023-04-24T05:29:19;98048.86;;;12.51;55.68
78857;BME280;68207;50.078;19.936;2023-04-24T05:31:44;98050.90;;;12.62;55.19
78857;BME280;68207;50.078;19.936;2023-04-24T05:34:09;98052.54;;;12.73;54.91
78857;BME280;68207;50.078;19.936;2023-04-24T05:36:35;98051.94;;;12.84;54.52
78857;BME280;68207;50.078;19.936;2023-04-24T05:39:00;98051.95;;;12.96;54.41
78857;BME280;68207;50.078;19.936;2023-04-24T05:41:25;98051.59;;;13.07;54.02
78857;BME280;68207;50.078;19.936;2023-04-24T05:43:51;98049.27;;;13.19;53.40
78857;BME280;68207;50.078;19.936;2023-04-24T05:46:16;98045.95;;;13.30;52.88
78857;BME280;68207;50.078;19.936;2023-04-24T05:48:41;98043.61;;;13.42;52.55
78857;BME280;68207;50.078;19.936;2023-04-24T05:51:07;98044.23;;;13.53;52.50
78857;BME280;68207;50.078;19.936;2023-04-24T05:53:32;98046.76;;;13.66;52.11
78857;BME280;68207;50.078;19.936;2023-04-24T05:55:57;98041.67;;;13.78;51.61
78857;BME280;68207;50.078;19.936;2023-04-24T05:58:22;98037.16;;;13.90;51.05
78857;BME280;68207;50.078;19.936;2023-04-24T06:00:48;98033.55;;;14.01;50.53
78857;BME280;68207;50.078;19.936;2023-04-24T06:03:13;98034.70;;;14.13;50.22
78857;BME280;68207;50.078;19.936;2023-04-24T06:05:39;98032.74;;;14.26;49.80
78857;BME280;68207;50.078;19.936;2023-04-24T06:08:04;98034.83;;;14.40;49.59
78857;BME280;68207;50.078;19.936;2023-04-24T06:10:29;98029.48;;;14.54;49.07
78857;BME280;68207;50.078;19.936;2023-04-24T06:12:55;98030.50;;;14.67;48.38
78857;BME280;68207;50.078;19.936;2023-04-24T06:15:25;98031.20;;;14.82;48.02
78857;BME280;68207;50.078;19.936;2023-04-24T06:17:50;98033.71;;;14.97;47.64
78857;BME280;68207;50.078;19.936;2023-04-24T06:20:15;98029.48;;;15.10;47.17
78857;BME280;68207;50.078;19.936;2023-04-24T06:22:40;98029.69;;;15.24;47.05
78857;BME280;68207;50.078;19.936;2023-04-24T06:25:06;98022.73;;;15.38;46.55
78857;BME280;68207;50.078;19.936;2023-04-24T06:27:32;98018.16;;;15.53;45.93
78857;BME280;68207;50.078;19.936;2023-04-24T06:29:57;98016.73;;;15.67;45.41
78857;BME280;68207;50.078;19.936;2023-04-24T06:32:23;98015.16;;;15.81;44.76
78857;BME280;68207;50.078;19.936;2023-04-24T06:34:51;98018.39;;;15.96;44.74
78857;BME280;68207;50.078;19.936;2023-04-24T06:37:17;98018.37;;;16.13;44.55
78857;BME280;68207;50.078;19.936;2023-04-24T06:39:43;98009.83;;;16.29;44.26
78857;BME280;68207;50.078;19.936;2023-04-24T06:42:08;98009.44;;;16.47;43.73
78857;BME280;68207;50.078;19.936;2023-04-24T06:44:35;98009.05;;;16.64;43.33
78857;BME280;68207;50.078;19.936;2023-04-24T06:47:08;98003.16;;;16.81;43.04
78857;BME280;68207;50.078;19.936;2023-04-24T06:49:35;97999.69;;;16.99;42.91
78857;BME280;68207;50.078;19.936;2023-04-24T06:52:00;97996.75;;;17.18;42.44
78857;BME280;68207;50.078;19.936;2023-04-24T06:54:29;97998.67;;;17.37;41.90
78857;BME280;68207;50.078;19.936;2023-04-24T06:56:54;97999.52;;;17.55;41.39
78857;BME280;68207;50.078;19.936;2023-04-24T06:59:20;97998.65;;;17.74;41.16
78857;BME280;68207;50.078;19.936;2023-04-24T07:01:45;97997.49;;;17.95;40.92
78857;BME280;68207;50.078;19.936;2023-04-24T07:04:11;97996.51;;;18.16;40.47
78857;BME280;68207;50.078;19.936;2023-04-24T07:06:38;97995.23;;;18.37;39.86
78857;BME280;68207;50.078;19.936;2023-04-24T07:09:04;97991.44;;;18.60;39.30
78857;BME280;68207;50.078;19.936;2023-04-24T07:11:29;97987.66;;;18.77;38.81
78857;BME280;68207;50.078;19.936;2023-04-24T07:13:55;97988.50;;;18.96;38.30
78857;BME280;68207;50.078;19.936;2023-04-24T07:16:20;97984.31;;;19.15;37.95
78857;BME280;68207;50.078;19.936;2023-04-24T07:18:46;97983.52;;;19.33;37.25
78857;BME280;68207;50.078;19.936;2023-04-24T07:21:11;97982.11;;;19.47;37.07
78857;BME280;68207;50.078;19.936;2023-04-24T07:23:36;97982.27;;;19.66;37.07
78857;BME280;68207;50.078;19.936;2023-04-24T07:26:02;97975.64;;;19.89;36.79
78857;BME280;68207;50.078;19.936;2023-04-24T07:28:27;97976.95;;;20.14;36.85
78857;BME280;68207;50.078;19.936;2023-04-24T07:30:56;97971.02;;;20.39;36.23
78857;BME280;68207;50.078;19.936;2023-04-24T07:33:22;97971.52;;;20.62;35.64
78857;BME280;68207;50.078;19.936;2023-04-24T07:35:47;97969.70;;;20.84;35.42
78857;BME280;68207;50.078;19.936;2023-04-24T07:38:13;97969.09;;;21.01;34.99
78857;BME280;68207;50.078;19.936;2023-04-24T07:40:38;97965.56;;;21.19;34.96
78857;BME280;68207;50.078;19.936;2023-04-24T07:43:03;97962.94;;;21.37;34.59
78857;BME280;68207;50.078;19.936;2023-04-24T07:45:29;97965.89;;;21.55;34.53
78857;BME280;68207;50.078;19.936;2023-04-24T07:47:54;97960.89;;;21.76;33.83
78857;BME280;68207;50.078;19.936;2023-04-24T07:50:20;97962.22;;;21.96;33.60
78857;BME280;68207;50.078;19.936;2023-04-24T07:52:45;97960.83;;;22.16;33.35
78857;BME280;68207;50.078;19.936;2023-04-24T07:55:11;97958.52;;;22.36;33.10
78857;BME280;68207;50.078;19.936;2023-04-24T07:57:36;97959.03;;;22.60;32.88
78857;BME280;68207;50.078;19.936;2023-04-24T08:00:03;97958.58;;;22.81;32.40
78857;BME280;68207;50.078;19.936;2023-04-24T08:02:28;97954.92;;;23.00;31.82
78857;BME280;68207;50.078;19.936;2023-04-24T08:04:54;97949.42;;;23.20;31.84
78857;BME280;68207;50.078;19.936;2023-04-24T08:07:20;97950.38;;;23.47;31.54
78857;BME280;68207;50.078;19.936;2023-04-24T08:09:45;97956.20;;;23.70;30.79
78857;BME280;68207;50.078;19.936;2023-04-24T08:12:10;97948.06;;;23.80;30.36
78857;BME280;68207;50.078;19.936;2023-04-24T08:14:36;97943.33;;;23.96;30.35
78857;BME280;68207;50.078;19.936;2023-04-24T08:17:01;97940.94;;;24.18;29.82
78857;BME280;68207;50.078;19.936;2023-04-24T08:19:27;97933.58;;;24.42;29.43
78857;BME280;68207;50.078;19.936;2023-04-24T08:21:52;97934.11;;;24.58;29.33
78857;BME280;68207;50.078;19.936;2023-04-24T08:24:18;97931.54;;;24.74;28.97
78857;BME280;68207;50.078;19.936;2023-04-24T08:26:43;97932.83;;;24.92;28.56
78857;BME280;68207;50.078;19.936;2023-04-24T08:29:08;97928.40;;;25.07;28.07
78857;BME280;68207;50.078;19.936;2023-04-24T08:31:34;97929.19;;;24.97;25.63
78857;BME280;68207;50.078;19.936;2023-04-24T08:34:00;97929.58;;;24.79;25.97
78857;BME280;68207;50.078;19.936;2023-04-24T08:36:26;97928.70;;;24.87;26.91
78857;BME280;68207;50.078;19.936;2023-04-24T08:38:51;97923.72;;;25.08;26.88
78857;BME280;68207;50.078;19.936;2023-04-24T08:41:18;97923.30;;;25.30;26.80
78857;BME280;68207;50.078;19.936;2023-04-24T08:43:45;97926.67;;;25.51;26.50
78857;BME280;68207;50.078;19.936;2023-04-24T08:46:13;97925.13;;;25.71;25.68
78857;BME280;68207;50.078;19.936;2023-04-24T08:48:39;97922.64;;;25.88;25.13
78857;BME280;68207;50.078;19.936;2023-04-24T08:51:07;97917.54;;;26.01;24.37
78857;BME280;68207;50.078;19.936;2023-04-24T08:53:33;97913.44;;;26.05;24.05
78857;BME280;68207;50.078;19.936;2023-04-24T08:55:58;97914.96;;;25.98;23.75
78857;BME280;68207;50.078;19.936;2023-04-24T08:58:27;97915.31;;;25.97;23.75
78857;BME280;68207;50.078;19.936;2023-04-24T09:00:56;97911.39;;;26.04;23.96
78857;BME280;68207;50.078;19.936;2023-04-24T09:03:39;97909.15;;;26.19;23.98
78857;BME280;68207;50.078;19.936;2023-04-24T09:06:06;97911.41;;;26.32;23.79
78857;BME280;68207;50.078;19.936;2023-04-24T09:08:32;97908.36;;;26.36;23.63
78857;BME280;68207;50.078;19.936;2023-04-24T09:10:57;97909.29;;;26.42;23.72
78857;BME280;68207;50.078;19.936;2023-04-24T09:13:24;97901.54;;;26.60;23.67
78857;BME280;68207;50.078;19.936;2023-04-24T09:15:50;97896.23;;;26.81;23.37
78857;BME280;68207;50.078;19.936;2023-04-24T09:18:16;97891.08;;;27.00;23.29
78857;BME280;68207;50.078;19.936;2023-04-24T09:21:03;97893.33;;;27.18;22.99
78857;BME280;68207;50.078;19.936;2023-04-24T09:23:30;97891.80;;;27.29;22.10
78857;BME280;68207;50.078;19.936;2023-04-24T09:25:56;97885.02;;;27.30;22.19
78857;BME280;68207;50.078;19.936;2023-04-24T09:28:40;97890.14;;;27.44;21.57
78857;BME280;68207;50.078;19.936;2023-04-24T09:31:12;97889.60;;;27.22;21.62
78857;BME280;68207;50.078;19.936;2023-04-24T09:33:39;97888.15;;;27.31;21.44
78857;BME280;68207;50.078;19.936;2023-04-24T09:36:05;97890.27;;;27.06;20.23
78857;BME280;68207;50.078;19.936;2023-04-24T09:38:40;97880.84;;;26.76;21.27
78857;BME280;68207;50.078;19.936;2023-04-24T09:41:07;97880.42;;;26.91;21.34
78857;BME280;68207;50.078;19.936;2023-04-24T09:43:33;97878.36;;;27.16;20.96
78857;BME280;68207;50.078;19.936;2023-04-24T09:46:04;97872.81;;;27.43;21.11
78857;BME280;68207;50.078;19.936;2023-04-24T09:48:34;97870.17;;;27.72;20.49
78857;BME280;68207;50.078;19.936;2023-04-24T09:51:01;97866.61;;;27.59;20.28
78857;BME280;68207;50.078;19.936;2023-04-24T09:53:28;97866.12;;;27.66;20.76
78857;BME280;68207;50.078;19.936;2023-04-24T09:55:54;97864.83;;;27.98;20.36
78857;BME280;68207;50.078;19.936;2023-04-24T09:58:26;97863.95;;;28.18;19.60
78857;BME280;68207;50.078;19.936;2023-04-24T10:00:55;97861.71;;;28.02;17.97
78857;BME280;68207;50.078;19.936;2023-04-24T10:03:24;97861.69;;;27.53;18.52
78857;BME280;68207;50.078;19.936;2023-04-24T10:05:51;97859.70;;;27.38;18.39
78857;BME280;68207;50.078;19.936;2023-04-24T10:08:16;97855.02;;;27.13;17.77
78857;BME280;68207;50.078;19.936;2023-04-24T10:10:44;97854.53;;;26.87;17.94
78857;BME280;68207;50.078;19.936;2023-04-24T10:13:10;97855.21;;;26.71;18.88
78857;BME280;68207;50.078;19.936;2023-04-24T10:15:40;97851.73;;;26.62;18.80
78857;BME280;68207;50.078;19.936;2023-04-24T10:18:06;97851.98;;;26.64;19.21
78857;BME280;68207;50.078;19.936;2023-04-24T10:20:32;97851.39;;;26.98;18.69
78857;BME280;68207;50.078;19.936;2023-04-24T10:22:59;97848.31;;;27.33;17.79
78857;BME280;68207;50.078;19.936;2023-04-24T10:25:27;97844.20;;;27.46;17.46
78857;BME280;68207;50.078;19.936;2023-04-24T10:27:54;97838.48;;;27.49;17.52
78857;BME280;68207;50.078;19.936;2023-04-24T10:30:23;97839.70;;;27.53;17.82
78857;BME280;68207;50.078;19.936;2023-04-24T10:32:48;97834.14;;;27.62;18.12
78857;BME280;68207;50.078;19.936;2023-04-24T10:35:14;97838.89;;;27.66;18.16
78857;BME280;68207;50.078;19.936;2023-04-24T10:37:45;97838.65;;;27.69;18.47
78857;BME280;68207;50.078;19.936;2023-04-24T10:40:11;97837.74;;;27.83;18.56
78857;BME280;68207;50.078;19.936;2023-04-24T10:42:41;97836.94;;;28.04;18.24
78857;BME280;68207;50.078;19.936;2023-04-24T10:45:19;97834.84;;;28.11;18.64
78857;BME280;68207;50.078;19.936;2023-04-24T10:48:01;97826.58;;;28.23;18.70
78857;BME280;68207;50.078;19.936;2023-04-24T10:50:29;97827.25;;;28.24;18.33
78857;BME280;68207;50.078;19.936;2023-04-24T10:53:05;97822.64;;;27.97;18.15
78857;BME280;68207;50.078;19.936;2023-04-24T10:55:42;97820.95;;;27.53;18.33
78857;BME280;68207;50.078;19.936;2023-04-24T10:58:08;97813.95;;;27.17;19.02
78857;BME280;68207;50.078;19.936;2023-04-24T11:00:36;97817.85;;;27.11;19.18
78857;BME280;68207;50.078;19.936;2023-04-24T11:03:04;97813.27;;;26.97;18.85
78857;BME280;68207;50.078;19.936;2023-04-24T11:05:52;97811.60;;;26.73;19.08
78857;BME280;68207;50.078;19.936;2023-04-24T11:08:24;97813.30;;;26.59;19.53
78857;BME280;68207;50.078;19.936;2023-04-24T11:11:03;97811.95;;;26.84;19.98
78857;BME280;68207;50.078;19.936;2023-04-24T11:16:33;97808.77;;;27.29;19.33
78857;BME280;68207;50.078;19.936;2023-04-24T11:21:47;97804.43;;;27.86;19.59
78857;BME280;68207;50.078;19.936;2023-04-24T11:26:57;97798.76;;;28.70;18.96
78857;BME280;68207;50.078;19.936;2023-04-24T11:29:38;97794.60;;;29.06;18.74
78857;BME280;68207;50.078;19.936;2023-04-24T11:32:56;97794.88;;;29.41;18.66
78857;BME280;68207;50.078;19.936;2023-04-24T11:37:35;97795.48;;;29.70;17.88
78857;BME280;68207;50.078;19.936;2023-04-24T11:40:03;97794.29;;;29.50;18.36
78857;BME280;68207;50.078;19.936;2023-04-24T11:42:33;97795.27;;;29.47;18.16
78857;BME280;68207;50.078;19.936;2023-04-24T11:44:59;97787.70;;;29.51;18.37
78857;BME280;68207;50.078;19.936;2023-04-24T11:47:29;97788.08;;;29.58;18.57
78857;BME280;68207;50.078;19.936;2023-04-24T11:49:55;97787.59;;;29.63;18.43
78857;BME280;68207;50.078;19.936;2023-04-24T11:52:20;97786.06;;;29.53;18.78
78857;BME280;68207;50.078;19.936;2023-04-24T11:54:49;97789.71;;;29.35;19.03
78857;BME280;68207;50.078;19.936;2023-04-24T11:57:15;97783.36;;;29.04;18.52
78857;BME280;68207;50.078;19.936;2023-04-24T11:59:41;97781.89;;;28.77;18.85
78857;BME280;68207;50.078;19.936;2023-04-24T12:02:06;97777.08;;;28.59;18.51
78857;BME280;68207;50.078;19.936;2023-04-24T12:04:39;97774.23;;;28.44;19.12
78857;BME280;68207;50.078;19.936;2023-04-24T12:07:05;97771.36;;;28.56;19.09
78857;BME280;68207;50.078;19.936;2023-04-24T12:10:04;97766.65;;;28.80;19.15
78857;BME280;68207;50.078;19.936;2023-04-24T12:12:28;97768.50;;;29.08;19.05
78857;BME280;68207;50.078;19.936;2023-04-24T12:14:56;97766.24;;;29.25;19.01
78857;BME280;68207;50.078;19.936;2023-04-24T12:17:30;97766.27;;;29.34;18.80
78857;BME280;68207;50.078;19.936;2023-04-24T12:20:02;97763.36;;;29.31;18.41
78857;BME280;68207;50.078;19.936;2023-04-24T12:22:43;97758.02;;;29.09;18.31
78857;BME280;68207;50.078;19.936;2023-04-24T12:25:10;97754.02;;;28.91;18.62
78857;BME280;68207;50.078;19.936;2023-04-24T12:27:35;97748.17;;;28.55;19.07
78857;BME280;68207;50.078;19.936;2023-04-24T12:30:03;97750.52;;;28.19;19.37
78857;BME280;68207;50.078;19.936;2023-04-24T12:32:29;97745.41;;;28.00;19.35
78857;BME280;68207;50.078;19.936;2023-04-24T12:34:55;97743.38;;;27.87;19.67
78857;BME280;68207;50.078;19.936;2023-04-24T12:37:23;97742.27;;;27.76;19.88
78857;BME280;68207;50.078;19.936;2023-04-24T12:40:11;97743.23;;;27.62;20.01
78857;BME280;68207;50.078;19.936;2023-04-24T12:42:45;97748.72;;;27.47;20.26
78857;BME280;68207;50.078;19.936;2023-04-24T12:45:11;97757.90;;;27.28;20.85
78857;BME280;68207;50.078;19.936;2023-04-24T12:47:40;97765.44;;;26.80;22.79
78857;BME280;68207;50.078;19.936;2023-04-24T12:50:11;97773.55;;;26.22;24.52
78857;BME280;68207;50.078;19.936;2023-04-24T12:52:37;97773.08;;;25.42;26.15
78857;BME280;68207;50.078;19.936;2023-04-24T12:55:03;97771.67;;;24.77;27.10
78857;BME280;68207;50.078;19.936;2023-04-24T12:57:30;97769.65;;;24.38;27.77
78857;BME280;68207;50.078;19.936;2023-04-24T12:59:57;97772.21;;;23.95;28.83